.
WxDataArchive / Data Records for 2007-09-25
2007-09-24 September 2007 2007-09-26

Data Records for Tuesday, 25 September 2007

Time	Temp	Chill	HIndex	Humid	Dewpt	 Wind 	HiWind	WindDir	Rain 	Barom 
-----	----	-----	------	-----	-----	------	------	-------	-----	----- 
00:00	76.5	76.5	78.2	69	65.6	0	1	248	0.00	29.938 
00:05	76.3	76.3	78.0	69	65.4	0	1	248	0.00	29.937 
00:10	76.1	76.1	77.8	69	65.2	0	1	248	0.00	29.938 
00:15	76.1	76.1	77.8	69	65.2	0	1	248	0.00	29.938 
00:20	76.0	76.0	77.7	69	65.1	0	0	---	0.00	29.937 
00:25	75.6	75.6	77.2	70	65.1	0	1	248	0.00	29.939 
00:30	75.4	75.4	77.0	71	65.3	0	1	248	0.00	29.939 
00:35	75.6	75.6	77.2	71	65.5	0	1	248	0.00	29.940 
00:40	75.6	75.6	77.2	70	65.1	0	1	248	0.00	29.940 
00:45	75.6	75.6	77.2	70	65.1	0	2	248	0.00	29.940 
00:50	75.8	75.8	77.4	70	65.3	0	2	248	0.00	29.940 
00:55	75.8	75.8	77.4	70	65.3	0	1	248	0.00	29.940 
01:00	75.8	75.8	77.4	70	65.3	0	1	248	0.00	29.940 
01:05	75.8	75.8	77.4	70	65.3	0	1	248	0.00	29.941 
01:10	75.8	75.8	77.4	70	65.3	0	1	248	0.00	29.941 
01:15	75.8	75.8	77.4	70	65.3	0	1	248	0.00	29.941 
01:20	76.0	76.0	77.7	70	65.5	0	3	248	0.00	29.942 
01:25	76.1	76.1	77.8	69	65.2	0	2	248	0.00	29.943 
01:30	76.3	76.3	78.0	69	65.4	0	1	270	0.00	29.944 
01:35	76.3	76.3	78.0	69	65.4	1	3	270	0.00	29.944 
01:40	76.5	76.5	78.2	69	65.6	0	2	248	0.00	29.943 
01:45	76.5	76.5	78.3	68	65.1	1	3	248	0.00	29.942 
01:50	76.7	76.7	78.5	68	65.3	0	1	248	0.00	29.941 
01:55	76.7	76.7	78.5	68	65.3	1	2	248	0.00	29.941 
02:00	76.7	76.7	78.5	68	65.3	1	4	248	0.00	29.940 
02:05	76.7	76.7	78.5	68	65.3	1	4	270	0.00	29.938 
02:10	76.7	76.7	78.5	68	65.3	1	3	248	0.00	29.939 
02:15	76.7	76.7	78.5	67	64.9	1	3	248	0.00	29.938 
02:20	76.7	76.7	78.5	68	65.3	0	2	248	0.00	29.939 
02:25	76.7	76.7	78.5	68	65.3	1	4	248	0.00	29.939 
02:30	76.7	76.7	78.5	67	64.9	1	4	248	0.00	29.940 
02:35	76.8	76.8	78.6	67	65.0	1	3	248	0.00	29.941 
02:40	76.8	76.8	78.6	67	65.0	1	3	248	0.00	29.942 
02:45	76.7	76.7	78.5	68	65.3	1	3	248	0.00	29.940 
02:50	76.7	76.7	78.5	68	65.3	1	3	248	0.00	29.940 
02:55	76.8	76.8	78.6	68	65.4	1	4	270	0.00	29.939 
03:00	76.8	76.8	78.6	67	65.0	1	3	248	0.00	29.940 
03:05	76.8	76.8	78.6	67	65.0	2	5	248	0.00	29.940 
03:10	76.8	76.8	78.6	67	65.0	1	5	225	0.00	29.940 
03:15	76.7	76.7	78.5	68	65.3	1	4	270	0.00	29.941 
03:20	76.5	76.5	78.3	68	65.1	1	3	225	0.00	29.942 
03:25	76.5	76.5	78.3	68	65.1	1	5	248	0.00	29.942 
03:30	76.3	76.3	78.0	69	65.4	1	2	248	0.00	29.944 
03:35	76.3	76.3	78.0	69	65.4	1	3	270	0.00	29.946 
03:40	76.3	76.3	78.0	69	65.4	0	2	270	0.00	29.944 
03:45	76.3	76.3	78.0	69	65.4	0	1	270	0.00	29.945 
03:50	76.0	76.0	77.7	70	65.5	0	2	248	0.00	29.944 
03:55	75.8	75.8	77.4	70	65.3	0	1	248	0.00	29.943 
04:00	75.6	75.6	77.2	71	65.5	0	1	248	0.00	29.944 
04:05	75.6	75.6	77.2	71	65.5	0	1	248	0.00	29.944 
04:10	75.6	75.6	77.2	71	65.5	0	2	248	0.00	29.944 
04:15	75.6	75.6	77.2	71	65.5	0	1	248	0.00	29.945 
04:20	75.6	75.6	77.2	71	65.5	0	3	248	0.00	29.948 
04:25	75.4	75.4	77.0	71	65.3	0	2	248	0.00	29.946 
04:30	75.3	75.3	76.8	72	65.6	0	2	248	0.00	29.946 
04:35	75.3	75.3	76.8	72	65.6	0	2	248	0.00	29.945 
04:40	75.1	75.1	76.6	72	65.4	0	2	248	0.00	29.945 
04:45	75.1	75.1	76.5	73	65.8	0	2	248	0.00	29.944 
04:50	75.1	75.1	76.5	73	65.8	0	3	248	0.00	29.944 
04:55	75.1	75.1	76.5	73	65.8	0	1	248	0.00	29.944 
05:00	75.1	75.1	76.5	73	65.8	1	3	248	0.00	29.944 
05:05	75.1	75.1	76.5	73	65.8	1	3	248	0.00	29.948 
05:10	75.3	75.3	76.7	73	66.0	1	3	248	0.00	29.947 
05:15	75.3	75.3	76.7	73	66.0	1	3	248	0.00	29.948 
05:20	75.4	75.4	76.8	73	66.1	1	3	248	0.00	29.948 
05:25	75.4	75.4	76.8	73	66.1	1	4	270	0.00	29.947 
05:30	75.4	75.4	76.8	73	66.1	0	1	248	0.00	29.946 
05:35	75.4	75.4	76.8	73	66.1	1	3	248	0.00	29.946 
05:40	75.3	75.3	76.7	73	66.0	1	3	225	0.00	29.946 
05:45	75.3	75.3	76.6	74	66.4	0	2	225	0.00	29.946 
05:50	75.1	75.1	76.4	74	66.2	1	2	248	0.00	29.945 
05:55	75.1	75.1	76.4	74	66.2	0	4	248	0.00	29.946 
06:00	74.9	74.9	74.9	74	66.0	0	2	248	0.00	29.946 
06:05	74.7	74.7	74.7	75	66.2	0	1	248	0.00	29.948 
06:10	74.7	74.7	74.7	75	66.2	1	2	248	0.00	29.948 
06:15	74.6	74.6	74.6	75	66.1	0	2	248	0.00	29.949 
06:20	74.6	74.6	74.6	75	66.1	1	5	248	0.00	29.948 
06:25	74.6	74.6	74.6	76	66.5	0	2	248	0.00	29.949 
06:30	74.4	74.4	74.4	76	66.3	0	3	248	0.00	29.951 
06:35	74.4	74.4	74.4	76	66.3	0	2	248	0.00	29.953 
06:40	74.4	74.4	74.4	76	66.3	1	3	248	0.00	29.957 
06:45	74.4	74.4	74.4	76	66.3	0	2	248	0.00	29.961 
06:50	74.4	74.4	74.4	77	66.7	0	1	248	0.00	29.959 
06:55	74.4	74.4	74.4	77	66.7	0	1	248	0.00	29.961 
07:00	74.4	74.4	74.4	77	66.7	1	4	248	0.00	29.963 
07:05	74.4	74.4	74.4	77	66.7	0	3	248	0.00	29.966 
07:10	74.6	74.6	74.6	77	66.9	1	2	248	0.00	29.967 
07:15	74.6	74.6	74.6	77	66.9	0	3	248	0.00	29.969 
07:20	74.4	74.4	74.4	77	66.7	0	3	225	0.00	29.968 
07:25	74.4	74.4	74.4	77	66.7	0	1	225	0.00	29.968 
07:30	74.4	74.4	74.4	77	66.7	0	2	248	0.00	29.968 
07:35	74.6	74.6	74.6	78	67.3	0	1	270	0.00	29.970 
07:40	74.6	74.6	74.6	78	67.3	0	2	270	0.00	29.974 
07:45	74.6	74.6	74.6	78	67.3	0	2	270	0.00	29.979 
07:50	74.6	74.6	74.6	78	67.3	0	1	270	0.00	29.976 
07:55	74.6	74.6	74.6	78	67.3	0	2	270	0.00	29.980 
08:00	74.6	74.6	74.6	78	67.3	0	2	248	0.00	29.982 
08:05	74.7	74.7	74.7	78	67.4	0	1	248	0.00	29.983 
08:10	74.7	74.7	74.7	78	67.4	0	2	315	0.00	29.983 
08:15	74.7	74.7	74.7	79	67.7	0	1	315	0.00	29.985 
08:20	74.9	74.9	74.9	78	67.6	0	2	270	0.00	29.986 
08:25	74.9	74.9	74.9	78	67.6	0	3	248	0.00	29.985 
08:30	75.1	75.1	76.1	77	67.4	1	3	270	0.00	29.983 
08:35	75.4	75.4	76.4	77	67.7	1	2	270	0.00	29.983 
08:40	75.6	75.6	76.7	77	67.9	0	2	270	0.00	29.983 
08:45	76.0	76.0	77.3	76	67.9	1	4	270	0.00	29.983 
08:50	76.1	76.1	77.4	76	68.0	1	4	248	0.00	29.985 
08:55	76.3	76.3	77.7	76	68.2	0	2	270	0.00	29.988 
09:00	76.3	76.3	77.7	76	68.2	1	2	270	0.00	29.989 
09:05	76.5	76.5	78.0	76	68.4	1	4	248	0.00	29.988 
09:10	76.7	76.7	78.3	75	68.2	2	9	270	0.00	29.988 
09:15	77.0	77.0	78.7	74	68.1	2	5	248	0.00	29.988 
09:20	77.2	77.2	79.0	74	68.3	1	4	68	0.00	29.989 
09:25	77.4	77.4	79.3	74	68.4	1	4	248	0.00	29.987 
09:30	77.6	77.6	79.5	73	68.2	2	5	248	0.00	29.987 
09:35	77.7	77.7	79.7	73	68.3	1	4	270	0.00	29.985 
09:40	77.7	77.7	79.7	73	68.3	1	4	248	0.00	29.982 
09:45	77.7	77.7	79.7	73	68.3	1	3	248	0.00	29.985 
09:50	77.7	77.7	79.7	73	68.3	1	3	270	0.00	29.987 
09:55	77.7	77.7	79.7	73	68.3	1	4	248	0.00	29.985 
10:00	77.9	77.9	80.0	73	68.5	2	4	248	0.00	29.983 
10:05	77.7	77.7	79.7	73	68.3	2	4	248	0.00	29.982 
10:10	77.7	77.7	79.7	73	68.3	2	5	248	0.00	29.985 
10:15	77.9	77.9	80.0	74	68.9	1	4	270	0.00	29.987 
10:20	77.9	77.9	80.0	74	68.9	1	3	248	0.00	29.981 
10:25	78.5	78.5	80.9	74	69.5	1	3	248	0.00	29.980 
10:30	79.0	79.0	81.6	72	69.2	2	5	248	0.00	29.980 
10:35	79.8	79.8	82.6	70	69.1	2	5	270	0.00	29.980 
10:40	80.9	80.9	84.3	69	69.8	3	4	270	0.00	29.979 
10:45	81.8	81.8	85.5	67	69.7	2	3	270	0.00	29.979 
10:50	81.8	81.8	85.3	66	69.3	3	8	270	0.00	29.978 
10:55	81.4	81.4	84.6	66	68.9	2	5	270	0.00	29.977 
11:00	81.2	81.2	84.5	67	69.2	1	3	270	0.00	29.976 
11:05	80.9	80.9	83.8	66	68.4	2	3	248	0.00	29.976 
11:10	80.7	80.7	83.8	68	69.1	2	4	248	0.00	29.973 
11:15	80.3	80.3	83.0	67	68.3	2	5	248	0.00	29.975 
11:20	80.3	80.3	83.2	68	68.8	2	4	270	0.00	29.972 
11:25	80.7	80.7	83.7	67	68.7	1	3	270	0.00	29.969 
11:30	81.1	81.1	84.5	68	69.5	1	4	248	0.00	29.967 
11:35	81.4	81.4	84.6	66	68.9	1	5	248	0.00	29.965 
11:40	82.0	82.0	85.4	65	69.0	1	4	0	0.00	29.963 
11:45	82.2	82.2	85.7	65	69.2	2	5	248	0.00	29.963 
11:50	82.6	82.6	86.4	65	69.6	1	3	270	0.00	29.962 
11:55	83.0	83.0	87.1	65	70.0	2	5	270	0.00	29.960 
12:00	82.6	82.6	86.2	64	69.2	2	4	270	0.00	29.959 
12:05	82.6	82.6	86.2	64	69.2	1	4	270	0.00	29.961 
12:10	82.2	82.2	85.5	64	68.8	2	5	270	0.00	29.961 
12:15	82.4	82.4	85.8	64	69.0	2	4	248	0.00	29.961 
12:20	83.0	83.0	86.9	64	69.5	2	5	248	0.00	29.960 
12:25	83.0	83.0	86.4	62	68.6	1	4	248	0.00	29.957 
12:30	83.8	83.8	88.3	64	70.3	1	2	315	0.00	29.958 
12:35	84.5	84.5	88.1	59	68.6	2	5	248	0.00	29.955 
12:40	84.3	84.3	87.8	59	68.4	2	6	292	0.00	29.949 
12:45	84.3	84.3	88.0	60	68.9	2	5	248	0.00	29.948 
12:50	84.1	84.1	87.4	59	68.2	2	7	270	0.00	29.947 
12:55	83.6	83.6	86.6	59	67.7	2	5	270	0.00	29.946 
13:00	83.2	83.2	86.2	60	67.8	2	4	270	0.00	29.946 
13:05	83.0	83.0	86.1	61	68.1	2	4	270	0.00	29.943 
13:10	83.0	83.0	85.9	60	67.7	2	6	270	0.00	29.943 
13:15	83.0	83.0	85.9	60	67.7	1	4	270	0.00	29.941 
13:20	83.6	83.6	87.1	61	68.7	1	4	248	0.00	29.935 
13:25	83.8	83.8	86.7	58	67.4	1	3	270	0.00	29.932 
13:30	83.8	83.8	86.7	58	67.4	1	3	270	0.00	29.934 
13:35	83.6	83.6	86.4	58	67.2	2	5	248	0.00	29.933 
13:40	83.4	83.4	86.3	59	67.5	0	2	248	0.00	29.930 
13:45	83.8	83.8	86.7	58	67.4	1	5	292	0.00	29.929 
13:50	84.0	84.0	87.0	58	67.6	2	4	270	0.00	29.928 
13:55	84.9	84.9	88.5	58	68.4	2	7	270	0.00	29.927 
14:00	85.1	85.1	88.5	57	68.1	2	6	270	0.00	29.926 
14:05	85.3	85.3	88.8	57	68.3	2	5	270	0.00	29.924 
14:10	85.3	85.3	89.2	58	68.8	1	4	248	0.00	29.922 
14:15	84.9	84.9	88.5	58	68.4	2	6	248	0.00	29.919 
14:20	84.5	84.5	87.8	58	68.1	3	7	248	0.00	29.915 
14:25	84.9	84.9	88.2	57	67.9	3	7	270	0.00	29.914 
14:30	84.9	84.9	87.9	56	67.4	3	7	270	0.00	29.913 
14:35	84.9	84.9	87.9	56	67.4	3	7	248	0.00	29.913 
14:40	84.9	84.9	88.2	57	67.9	3	7	248	0.00	29.911 
14:45	85.3	85.3	88.2	55	67.3	3	9	270	0.00	29.912 
14:50	85.3	85.3	88.0	54	66.7	3	7	270	0.00	29.911 
14:55	84.9	84.9	87.9	56	67.4	2	6	270	0.00	29.908 
15:00	84.7	84.7	87.9	57	67.7	2	5	270	0.00	29.901 
15:05	84.5	84.5	87.5	57	67.6	2	6	270	0.00	29.898 
15:10	84.9	84.9	88.2	57	67.9	2	5	248	0.00	29.897 
15:15	84.7	84.7	87.6	56	67.2	3	6	270	0.00	29.897 
15:20	84.7	84.7	87.6	56	67.2	3	6	270	0.00	29.896 
15:25	84.5	84.5	87.3	56	67.0	2	5	248	0.00	29.895 
15:30	84.3	84.3	87.2	57	67.4	1	4	248	0.00	29.895 
15:35	84.5	84.5	87.3	56	67.0	2	5	248	0.00	29.894 
15:40	84.7	84.7	87.6	56	67.2	2	6	270	0.00	29.894 
15:45	84.7	84.7	87.3	55	66.7	2	6	270	0.00	29.895 
15:50	84.5	84.5	87.3	56	67.0	2	6	270	0.00	29.892 
15:55	84.5	84.5	87.0	55	66.5	1	4	270	0.00	29.892 
16:00	84.3	84.3	86.5	54	65.8	2	7	248	0.00	29.890 
16:05	84.1	84.1	86.4	55	66.2	2	6	270	0.00	29.888 
16:10	83.8	83.8	86.0	55	65.9	2	7	270	0.00	29.887 
16:15	83.8	83.8	86.2	56	66.4	1	2	270	0.00	29.886 
16:20	83.6	83.6	86.1	57	66.7	1	3	270	0.00	29.888 
16:25	83.4	83.4	85.8	57	66.5	1	7	248	0.00	29.887 
16:30	83.6	83.6	86.4	58	67.2	1	3	248	0.00	29.891 
16:35	83.6	83.6	86.1	57	66.7	2	7	270	0.00	29.889 
16:40	83.2	83.2	85.8	58	66.9	2	6	248	0.00	29.888 
16:45	83.0	83.0	85.7	59	67.2	1	5	270	0.00	29.893 
16:50	82.8	82.8	85.4	59	67.0	2	6	248	0.00	29.889 
16:55	82.6	82.6	85.1	59	66.8	1	3	225	0.00	29.890 
17:00	82.6	82.6	85.3	60	67.3	2	7	270	0.00	29.892 
17:05	82.2	82.2	85.1	62	67.9	2	9	248	0.00	29.895 
17:10	81.8	81.8	84.5	62	67.5	2	5	270	0.00	29.894 
17:15	81.6	81.6	84.2	62	67.3	1	5	248	0.00	29.893 
17:20	81.6	81.6	84.0	61	66.8	2	6	270	0.00	29.895 
17:25	81.6	81.6	84.2	62	67.3	1	5	248	0.00	29.895 
17:30	81.4	81.4	83.9	62	67.1	1	4	248	0.00	29.895 
17:35	81.4	81.4	83.9	62	67.1	2	7	270	0.00	29.897 
17:40	81.2	81.2	83.6	62	66.9	1	5	248	0.00	29.895 
17:45	81.1	81.1	83.5	62	66.8	1	5	248	0.00	29.893 
17:50	81.1	81.1	83.6	63	67.3	1	2	248	0.00	29.890 
17:55	80.9	80.9	83.4	63	67.1	1	4	248	0.00	29.889 
18:00	80.7	80.7	83.1	63	66.9	1	3	248	0.00	29.892 
18:05	80.5	80.5	82.8	63	66.7	1	5	248	0.00	29.897 
18:10	80.7	80.7	82.9	62	66.4	2	4	270	0.00	29.893 
18:15	80.9	80.9	83.2	62	66.6	1	5	292	0.00	29.897 
18:20	80.7	80.7	82.9	62	66.4	2	7	248	0.00	29.900 
18:25	80.7	80.7	83.1	63	66.9	1	10	248	0.00	29.901 
18:30	80.5	80.5	82.8	63	66.7	2	5	270	0.00	29.904 
18:35	79.6	79.6	81.3	59	64.0	4	9	270	0.00	29.932 
18:40	75.3	75.3	77.0	69	64.4	4	12	270	0.01	29.935 
18:45	72.5	72.5	72.5	77	64.9	3	7	270	0.02	29.940 
18:50	71.1	71.1	71.1	82	65.3	1	5	248	0.04	29.944 
18:55	70.3	70.3	70.3	85	65.6	1	6	248	0.01	29.941 
19:00	69.9	69.9	69.9	87	65.8	0	1	248	0.01	29.938 
19:05	69.8	69.8	69.8	89	66.4	0	1	248	0.00	29.938 
19:10	69.6	69.6	69.6	90	66.5	0	1	248	0.00	29.939 
19:15	69.6	69.6	69.6	91	66.8	0	0	---	0.00	29.936 
19:20	69.4	69.4	69.4	92	67.0	0	1	248	0.00	29.936 
19:25	69.4	69.4	69.4	92	67.0	0	2	270	0.00	29.938 
19:30	69.6	69.6	69.6	92	67.2	1	3	248	0.01	29.941 
19:35	69.9	69.9	69.9	92	67.5	2	4	248	0.00	29.949 
19:40	70.3	70.3	70.3	92	67.9	3	7	270	0.00	29.954 
19:45	70.4	70.4	70.4	92	68.0	2	5	248	0.00	29.956 
19:50	70.4	70.4	70.4	92	68.0	2	6	270	0.01	29.956 
19:55	70.4	70.4	70.4	92	68.0	3	7	270	0.00	29.956 
20:00	70.4	70.4	70.4	92	68.0	2	6	270	0.00	29.953 
20:05	70.4	70.4	70.4	93	68.3	3	9	270	0.00	29.945 
20:10	70.4	70.4	70.4	93	68.3	2	5	248	0.01	29.943 
20:15	70.4	70.4	70.4	93	68.3	2	6	248	0.00	29.945 
20:20	70.4	70.4	70.4	94	68.6	3	9	270	0.00	29.941 
20:25	70.6	70.6	70.6	93	68.5	1	6	270	0.00	29.935 
20:30	70.4	70.4	70.4	93	68.3	2	7	248	0.00	29.925 
20:35	70.4	70.4	70.4	93	68.3	0	4	270	0.00	29.917 
20:40	70.4	70.4	70.4	94	68.6	2	5	90	0.00	29.904 
20:45	70.4	70.4	70.4	94	68.6	1	5	90	0.00	29.895 
20:50	70.3	70.3	70.3	93	68.2	1	2	22	0.00	29.903 
20:55	70.3	70.3	70.3	94	68.5	1	4	270	0.00	29.908 
21:00	70.3	70.3	70.3	94	68.5	2	4	270	0.00	29.911 
21:05	70.1	70.1	70.1	94	68.3	1	4	248	0.00	29.919 
21:10	70.1	70.1	70.1	94	68.3	2	5	248	0.00	29.926 
21:15	70.1	70.1	70.1	94	68.3	1	4	270	0.00	29.921 
21:20	69.9	69.9	69.9	94	68.1	1	4	248	0.00	29.916 
21:25	69.8	69.8	69.8	93	67.7	1	3	270	0.00	29.914 
21:30	69.6	69.6	69.6	93	67.5	1	5	270	0.00	29.914 
21:35	69.6	69.6	69.6	93	67.5	1	4	270	0.00	29.918 
21:40	69.4	69.4	69.4	93	67.3	1	3	270	0.00	29.924 
21:45	69.4	69.4	69.4	93	67.3	1	4	270	0.00	29.923 
21:50	69.3	69.3	69.3	93	67.2	1	2	315	0.00	29.924 
21:55	69.3	69.3	69.3	93	67.2	1	3	270	0.00	29.923 
22:00	69.3	69.3	69.3	93	67.2	0	2	270	0.00	29.927 
22:05	69.1	69.1	69.1	92	66.7	0	2	248	0.00	29.924 
22:10	69.1	69.1	69.1	92	66.7	0	2	248	0.00	29.922 
22:15	69.1	69.1	69.1	92	66.7	0	1	248	0.00	29.922 
22:20	69.1	69.1	69.1	92	66.7	0	1	248	0.00	29.922 
22:25	69.1	69.1	69.1	92	66.7	1	4	248	0.00	29.923 
22:30	69.1	69.1	69.1	91	66.4	1	3	292	0.00	29.923 
22:35	69.3	69.3	69.3	91	66.6	1	2	270	0.00	29.924 
22:40	69.3	69.3	69.3	90	66.2	0	2	248	0.00	29.923 
22:45	69.3	69.3	69.3	90	66.2	0	2	248	0.00	29.922 
22:50	69.3	69.3	69.3	90	66.2	0	2	248	0.00	29.922 
22:55	69.3	69.3	69.3	90	66.2	0	1	248	0.00	29.921 
23:00	69.3	69.3	69.3	90	66.2	1	3	248	0.00	29.921 
23:05	69.3	69.3	69.3	91	66.6	0	1	270	0.00	29.919 
23:10	69.3	69.3	69.3	90	66.2	1	3	270	0.00	29.918 
23:15	69.3	69.3	69.3	90	66.2	1	2	248	0.00	29.917 
23:20	69.3	69.3	69.3	90	66.2	1	2	248	0.00	29.911 
23:25	69.4	69.4	69.4	90	66.3	1	3	270	0.00	29.906 
23:30	69.4	69.4	69.4	89	66.0	1	3	270	0.00	29.905 
23:35	69.4	69.4	69.4	89	66.0	0	1	225	0.00	29.908 
23:40	69.3	69.3	69.3	90	66.2	0	1	225	0.00	29.908 
23:45	69.3	69.3	69.3	90	66.2	1	3	248	0.00	29.905 
23:50	69.3	69.3	69.3	90	66.2	1	3	248	0.00	29.905 
23:55	69.3	69.3	69.3	90	66.2	1	3	248	0.00	29.904 

CoCoRaHS
IN-AL-39
A2 Web Hosting
Creative Commons License
GoDaddy
Look for:

loaded 2017-10-16 18:38:20 • last modified 2010-11-18 10:43:29
Privacy PolicyDisclaimer
• wx.awcolley.com is powered by PmWiki v.2002016 •
• all content (unless otherwise noted) © 2017 A W Colley